sensor_id;sensor_type;location;lat;lon;timestamp;pressure;altitude;pressure_sealevel;temperature;humidity
14689;BME280;7432;48.728;9.154;2023-06-04T00:02:01;145760.94;;;16.19;60.53
14689;BME280;7432;48.728;9.154;2023-06-04T00:04:28;145757.31;;;16.17;59.29
14689;BME280;7432;48.728;9.154;2023-06-04T00:06:55;145763.38;;;16.20;59.67
14689;BME280;7432;48.728;9.154;2023-06-04T00:09:21;145764.56;;;16.20;58.78
14689;BME280;7432;48.728;9.154;2023-06-04T00:11:48;145771.84;;;16.23;57.21
14689;BME280;7432;48.728;9.154;2023-06-04T00:14:15;145777.94;;;16.26;59.00
14689;BME280;7432;48.728;9.154;2023-06-04T00:16:42;145777.94;;;16.26;57.96
14689;BME280;7432;48.728;9.154;2023-06-04T00:19:09;145776.75;;;16.25;57.20
14689;BME280;7432;48.728;9.154;2023-06-04T00:21:35;145769.44;;;16.22;57.05
14689;BME280;7432;48.728;9.154;2023-06-04T00:24:02;145764.56;;;16.20;57.96
14689;BME280;7432;48.728;9.154;2023-06-04T00:26:28;145765.78;;;16.21;58.03
14689;BME280;7432;48.728;9.154;2023-06-04T00:28:55;145759.72;;;16.18;58.28
14689;BME280;7432;48.728;9.154;2023-06-04T00:31:22;145748.78;;;16.14;58.16
14689;BME280;7432;48.728;9.154;2023-06-04T00:33:49;145739.03;;;16.10;58.75
14689;BME280;7432;48.728;9.154;2023-06-04T00:36:16;145715.97;;;16.00;58.76
14689;BME280;7432;48.728;9.154;2023-06-04T00:38:42;145731.75;;;16.07;59.16
14689;BME280;7432;48.728;9.154;2023-06-04T00:41:08;145723.28;;;16.03;60.10
14689;BME280;7432;48.728;9.154;2023-06-04T00:43:35;145708.69;;;15.97;59.65
14689;BME280;7432;48.728;9.154;2023-06-04T00:46:02;145689.25;;;15.89;59.77
14689;BME280;7432;48.728;9.154;2023-06-04T00:48:29;145675.88;;;15.83;59.79
14689;BME280;7432;48.728;9.154;2023-06-04T00:50:56;145660.06;;;15.77;59.92
14689;BME280;7432;48.728;9.154;2023-06-04T00:53:24;145652.75;;;15.74;60.88
14689;BME280;7432;48.728;9.154;2023-06-04T00:55:51;145621.19;;;15.61;60.52
14689;BME280;7432;48.728;9.154;2023-06-04T00:58:18;145607.81;;;15.55;61.57
14689;BME280;7432;48.728;9.154;2023-06-04T01:00:45;145598.13;;;15.51;62.25
14689;BME280;7432;48.728;9.154;2023-06-04T01:03:14;145570.13;;;15.39;62.47
14689;BME280;7432;48.728;9.154;2023-06-04T01:05:50;145560.38;;;15.35;62.39
14689;BME280;7432;48.728;9.154;2023-06-04T01:08:17;145559.22;;;15.35;62.68
14689;BME280;7432;48.728;9.154;2023-06-04T01:10:50;145547.06;;;15.30;62.39
14689;BME280;7432;48.728;9.154;2023-06-04T01:13:17;145526.41;;;15.21;63.48
14689;BME280;7432;48.728;9.154;2023-06-04T01:15:43;145511.84;;;15.15;63.45
14689;BME280;7432;48.728;9.154;2023-06-04T01:18:10;145504.53;;;15.12;63.59
14689;BME280;7432;48.728;9.154;2023-06-04T01:20:57;145494.81;;;15.08;64.19
14689;BME280;7432;48.728;9.154;2023-06-04T01:23:28;145487.56;;;15.05;64.11
14689;BME280;7432;48.728;9.154;2023-06-04T01:25:59;145479.03;;;15.02;64.35
14689;BME280;7432;48.728;9.154;2023-06-04T01:28:28;145486.34;;;15.05;65.22
14689;BME280;7432;48.728;9.154;2023-06-04T01:30:55;145487.56;;;15.05;64.94
14689;BME280;7432;48.728;9.154;2023-06-04T01:33:25;145486.34;;;15.05;64.48
14689;BME280;7432;48.728;9.154;2023-06-04T01:35:51;145488.72;;;15.06;64.38
14689;BME280;7432;48.728;9.154;2023-06-04T01:38:19;145475.38;;;15.00;65.08
14689;BME280;7432;48.728;9.154;2023-06-04T01:40:46;145460.84;;;14.94;64.92
14689;BME280;7432;48.728;9.154;2023-06-04T01:43:13;145454.78;;;14.92;65.26
14689;BME280;7432;48.728;9.154;2023-06-04T01:45:39;145432.91;;;14.82;65.06
14689;BME280;7432;48.728;9.154;2023-06-04T01:48:06;145429.22;;;14.81;65.13
14689;BME280;7432;48.728;9.154;2023-06-04T01:50:33;145417.09;;;14.76;64.60
14689;BME280;7432;48.728;9.154;2023-06-04T01:52:59;145417.09;;;14.76;63.92
14689;BME280;7432;48.728;9.154;2023-06-04T01:55:27;145429.22;;;14.81;63.60
14689;BME280;7432;48.728;9.154;2023-06-04T01:57:58;145423.16;;;14.78;63.21
14689;BME280;7432;48.728;9.154;2023-06-04T02:00:26;145412.25;;;14.74;62.66
14689;BME280;7432;48.728;9.154;2023-06-04T02:02:52;145404.97;;;14.71;63.29
14689;BME280;7432;48.728;9.154;2023-06-04T02:05:21;145402.53;;;14.70;62.80
14689;BME280;7432;48.728;9.154;2023-06-04T02:07:47;145391.59;;;14.65;63.63
14689;BME280;7432;48.728;9.154;2023-06-04T02:10:15;145384.31;;;14.62;63.13
14689;BME280;7432;48.728;9.154;2023-06-04T02:12:55;145367.34;;;14.55;64.80
14689;BME280;7432;48.728;9.154;2023-06-04T02:15:22;145354.00;;;14.50;64.25
14689;BME280;7432;48.728;9.154;2023-06-04T02:17:49;145338.19;;;14.43;65.46
14689;BME280;7432;48.728;9.154;2023-06-04T02:20:16;145334.56;;;14.42;65.37
14689;BME280;7432;48.728;9.154;2023-06-04T02:22:43;145327.28;;;14.39;64.38
14689;BME280;7432;48.728;9.154;2023-06-04T02:25:09;145321.22;;;14.36;65.02
14689;BME280;7432;48.728;9.154;2023-06-04T02:27:36;145304.16;;;14.29;65.63
14689;BME280;7432;48.728;9.154;2023-06-04T02:30:04;145307.81;;;14.31;65.46
14689;BME280;7432;48.728;9.154;2023-06-04T02:32:31;145298.09;;;14.26;64.56
14689;BME280;7432;48.728;9.154;2023-06-04T02:34:58;145294.47;;;14.25;64.87
14689;BME280;7432;48.728;9.154;2023-06-04T02:37:25;145279.91;;;14.19;65.49
14689;BME280;7432;48.728;9.154;2023-06-04T02:39:51;145279.91;;;14.19;65.44
14689;BME280;7432;48.728;9.154;2023-06-04T02:42:18;145270.22;;;14.15;65.56
14689;BME280;7432;48.728;9.154;2023-06-04T02:44:44;145254.41;;;14.08;65.83
14689;BME280;7432;48.728;9.154;2023-06-04T02:47:12;145249.56;;;14.06;66.20
14689;BME280;7432;48.728;9.154;2023-06-04T02:49:38;145248.34;;;14.06;65.56
14689;BME280;7432;48.728;9.154;2023-06-04T02:52:06;145259.25;;;14.10;65.83
14689;BME280;7432;48.728;9.154;2023-06-04T02:54:32;145259.25;;;14.10;66.43
14689;BME280;7432;48.728;9.154;2023-06-04T02:56:58;145259.25;;;14.10;65.83
14689;BME280;7432;48.728;9.154;2023-06-04T02:59:25;145245.91;;;14.05;66.04
14689;BME280;7432;48.728;9.154;2023-06-04T03:01:51;145261.72;;;14.11;66.02
14689;BME280;7432;48.728;9.154;2023-06-04T03:04:19;145254.41;;;14.08;66.16
14689;BME280;7432;48.728;9.154;2023-06-04T03:06:45;145244.69;;;14.04;65.90
14689;BME280;7432;48.728;9.154;2023-06-04T03:09:12;145244.69;;;14.04;66.14
14689;BME280;7432;48.728;9.154;2023-06-04T03:11:39;145238.63;;;14.02;66.19
14689;BME280;7432;48.728;9.154;2023-06-04T03:14:05;145243.50;;;14.04;65.95
14689;BME280;7432;48.728;9.154;2023-06-04T03:16:31;145238.63;;;14.02;66.47
14689;BME280;7432;48.728;9.154;2023-06-04T03:18:58;145244.69;;;14.04;66.37
14689;BME280;7432;48.728;9.154;2023-06-04T03:21:26;145245.91;;;14.05;65.53
14689;BME280;7432;48.728;9.154;2023-06-04T03:23:54;145245.91;;;14.05;64.79
14689;BME280;7432;48.728;9.154;2023-06-04T03:26:20;145248.34;;;14.06;64.61
14689;BME280;7432;48.728;9.154;2023-06-04T03:28:46;145255.63;;;14.09;64.27
14689;BME280;7432;48.728;9.154;2023-06-04T03:31:13;145256.88;;;14.09;63.42
14689;BME280;7432;48.728;9.154;2023-06-04T03:33:40;145244.69;;;14.04;63.68
14689;BME280;7432;48.728;9.154;2023-06-04T03:36:06;145248.34;;;14.06;63.51
14689;BME280;7432;48.728;9.154;2023-06-04T03:38:34;145260.47;;;14.11;64.86
14689;BME280;7432;48.728;9.154;2023-06-04T03:41:00;145249.56;;;14.06;64.48
14689;BME280;7432;48.728;9.154;2023-06-04T03:43:26;145262.94;;;14.12;64.30
14689;BME280;7432;48.728;9.154;2023-06-04T03:45:53;145261.72;;;14.11;63.28
14689;BME280;7432;48.728;9.154;2023-06-04T03:48:19;145260.47;;;14.11;62.85
14689;BME280;7432;48.728;9.154;2023-06-04T03:50:45;145271.38;;;14.15;61.55
14689;BME280;7432;48.728;9.154;2023-06-04T03:53:12;145289.63;;;14.23;62.04
14689;BME280;7432;48.728;9.154;2023-06-04T03:55:40;145293.25;;;14.24;61.53
14689;BME280;7432;48.728;9.154;2023-06-04T03:58:06;145301.75;;;14.28;61.60
14689;BME280;7432;48.728;9.154;2023-06-04T04:00:34;145302.97;;;14.29;62.22
14689;BME280;7432;48.728;9.154;2023-06-04T04:03:01;145302.97;;;14.29;62.07
14689;BME280;7432;48.728;9.154;2023-06-04T04:05:28;145316.38;;;14.34;62.96
14689;BME280;7432;48.728;9.154;2023-06-04T04:07:54;145330.91;;;14.40;60.92
14689;BME280;7432;48.728;9.154;2023-06-04T04:10:21;145335.78;;;14.42;61.65
14689;BME280;7432;48.728;9.154;2023-06-04T04:12:48;145339.41;;;14.44;61.17
14689;BME280;7432;48.728;9.154;2023-06-04T04:15:16;145369.75;;;14.56;61.90
14689;BME280;7432;48.728;9.154;2023-06-04T04:17:42;145388.00;;;14.64;59.65
14689;BME280;7432;48.728;9.154;2023-06-04T04:20:10;145411.03;;;14.73;58.20
14689;BME280;7432;48.728;9.154;2023-06-04T04:22:39;145455.94;;;14.92;57.89
14689;BME280;7432;48.728;9.154;2023-06-04T04:25:06;145498.47;;;15.10;58.46
14689;BME280;7432;48.728;9.154;2023-06-04T04:27:34;145550.69;;;15.31;55.39
14689;BME280;7432;48.728;9.154;2023-06-04T04:30:06;145583.50;;;15.45;56.78
14689;BME280;7432;48.728;9.154;2023-06-04T04:32:33;145582.25;;;15.44;55.80
14689;BME280;7432;48.728;9.154;2023-06-04T04:34:59;145559.22;;;15.35;57.50
14689;BME280;7432;48.728;9.154;2023-06-04T04:37:25;145554.31;;;15.33;57.73
14689;BME280;7432;48.728;9.154;2023-06-04T04:39:52;145562.84;;;15.36;55.15
14689;BME280;7432;48.728;9.154;2023-06-04T04:42:18;145576.19;;;15.42;55.16
14689;BME280;7432;48.728;9.154;2023-06-04T04:44:45;145551.91;;;15.32;55.71
14689;BME280;7432;48.728;9.154;2023-06-04T04:47:15;145550.69;;;15.31;55.80
14689;BME280;7432;48.728;9.154;2023-06-04T04:49:41;145547.06;;;15.30;55.51
14689;BME280;7432;48.728;9.154;2023-06-04T04:52:07;145567.69;;;15.38;55.47
14689;BME280;7432;48.728;9.154;2023-06-04T04:54:34;145564.06;;;15.37;55.18
14689;BME280;7432;48.728;9.154;2023-06-04T04:57:00;145557.97;;;15.34;54.94
14689;BME280;7432;48.728;9.154;2023-06-04T04:59:27;145554.31;;;15.33;55.63
14689;BME280;7432;48.728;9.154;2023-06-04T05:01:53;145556.75;;;15.34;55.99
14689;BME280;7432;48.728;9.154;2023-06-04T05:04:21;145585.97;;;15.46;55.50
14689;BME280;7432;48.728;9.154;2023-06-04T05:06:47;145601.75;;;15.53;55.28
14689;BME280;7432;48.728;9.154;2023-06-04T05:09:13;145616.34;;;15.59;55.64
14689;BME280;7432;48.728;9.154;2023-06-04T05:11:40;145627.25;;;15.63;55.25
14689;BME280;7432;48.728;9.154;2023-06-04T05:14:07;145634.53;;;15.66;55.32
14689;BME280;7432;48.728;9.154;2023-06-04T05:16:33;145675.88;;;15.83;54.78
14689;BME280;7432;48.728;9.154;2023-06-04T05:19:00;145696.53;;;15.92;54.76
14689;BME280;7432;48.728;9.154;2023-06-04T05:21:28;145730.56;;;16.06;54.60
14689;BME280;7432;48.728;9.154;2023-06-04T05:23:54;145758.47;;;16.18;53.79
14689;BME280;7432;48.728;9.154;2023-06-04T05:26:21;145767.00;;;16.21;53.76
14689;BME280;7432;48.728;9.154;2023-06-04T05:28:48;145786.44;;;16.29;53.72
14689;BME280;7432;48.728;9.154;2023-06-04T05:31:14;145839.94;;;16.51;53.97
14689;BME280;7432;48.728;9.154;2023-06-04T05:33:43;145871.59;;;16.65;53.70
14689;BME280;7432;48.728;9.154;2023-06-04T05:36:09;145916.56;;;16.83;52.36
14689;BME280;7432;48.728;9.154;2023-06-04T05:38:38;145960.38;;;17.01;51.05
14689;BME280;7432;48.728;9.154;2023-06-04T05:41:05;146027.28;;;17.29;50.92
14689;BME280;7432;48.728;9.154;2023-06-04T05:43:31;146077.13;;;17.50;49.69
14689;BME280;7432;48.728;9.154;2023-06-04T05:45:58;146148.97;;;17.80;50.12
14689;BME280;7432;48.728;9.154;2023-06-04T05:48:24;146176.97;;;17.91;47.19
14689;BME280;7432;48.728;9.154;2023-06-04T05:50:51;146203.75;;;18.02;46.97
14689;BME280;7432;48.728;9.154;2023-06-04T05:53:17;146213.44;;;18.06;46.34
14689;BME280;7432;48.728;9.154;2023-06-04T05:55:45;146235.38;;;18.15;45.82
14689;BME280;7432;48.728;9.154;2023-06-04T05:58:12;146299.88;;;18.42;46.29
14689;BME280;7432;48.728;9.154;2023-06-04T06:00:38;146278.00;;;18.33;46.28
14689;BME280;7432;48.728;9.154;2023-06-04T06:03:05;146401.00;;;18.84;45.77
14689;BME280;7432;48.728;9.154;2023-06-04T06:05:32;146498.44;;;19.24;45.70
14689;BME280;7432;48.728;9.154;2023-06-04T06:07:58;146608.16;;;19.70;43.94
14689;BME280;7432;48.728;9.154;2023-06-04T06:10:24;146805.66;;;20.51;43.26
14689;BME280;7432;48.728;9.154;2023-06-04T06:12:52;146952.06;;;21.12;41.46
14689;BME280;7432;48.728;9.154;2023-06-04T06:15:19;147193.69;;;22.12;39.57
14689;BME280;7432;48.728;9.154;2023-06-04T06:17:45;147456.25;;;23.20;37.61
14689;BME280;7432;48.728;9.154;2023-06-04T06:20:12;147748.41;;;24.41;35.79
14689;BME280;7432;48.728;9.154;2023-06-04T06:22:42;148120.34;;;25.94;33.22
14689;BME280;7432;48.728;9.154;2023-06-04T06:25:09;148515.94;;;27.57;31.71
14689;BME280;7432;48.728;9.154;2023-06-04T06:27:38;148963.50;;;29.41;29.44
14689;BME280;7432;48.728;9.154;2023-06-04T06:30:07;149163.50;;;30.23;27.15
14689;BME280;7432;48.728;9.154;2023-06-04T06:32:33;149352.63;;;31.01;26.43
14689;BME280;7432;48.728;9.154;2023-06-04T06:35:00;149444.69;;;31.39;25.51
14689;BME280;7432;48.728;9.154;2023-06-04T06:37:27;149670.78;;;32.32;24.88
14689;BME280;7432;48.728;9.154;2023-06-04T06:39:53;149783.88;;;32.78;24.51
14689;BME280;7432;48.728;9.154;2023-06-04T06:42:20;149620.41;;;32.11;24.39
14689;BME280;7432;48.728;9.154;2023-06-04T06:44:46;149952.34;;;33.47;24.02
14689;BME280;7432;48.728;9.154;2023-06-04T06:47:14;149905.63;;;33.28;23.86
14689;BME280;7432;48.728;9.154;2023-06-04T06:49:40;150002.75;;;33.68;23.70
14689;BME280;7432;48.728;9.154;2023-06-04T06:52:07;149899.44;;;33.25;23.63
14689;BME280;7432;48.728;9.154;2023-06-04T06:54:33;149738.41;;;32.59;24.46
14689;BME280;7432;48.728;9.154;2023-06-04T06:57:00;150031.06;;;33.79;23.17
14689;BME280;7432;48.728;9.154;2023-06-04T06:59:28;150120.84;;;34.16;23.10
14689;BME280;7432;48.728;9.154;2023-06-04T07:01:54;150053.16;;;33.88;23.17
14689;BME280;7432;48.728;9.154;2023-06-04T07:04:22;149963.38;;;33.52;22.98
14689;BME280;7432;48.728;9.154;2023-06-04T07:06:48;150119.59;;;34.16;22.67
14689;BME280;7432;48.728;9.154;2023-06-04T07:09:14;150334.94;;;35.04;21.90
14689;BME280;7432;48.728;9.154;2023-06-04T07:11:41;150431.00;;;35.43;22.40
14689;BME280;7432;48.728;9.154;2023-06-04T07:14:07;150541.81;;;35.89;21.83
14689;BME280;7432;48.728;9.154;2023-06-04T07:16:34;150399.00;;;35.30;21.96
14689;BME280;7432;48.728;9.154;2023-06-04T07:19:01;149981.84;;;33.59;23.38
14689;BME280;7432;48.728;9.154;2023-06-04T07:21:29;150275.91;;;34.80;21.87
14689;BME280;7432;48.728;9.154;2023-06-04T07:23:55;150476.59;;;35.62;22.54
14689;BME280;7432;48.728;9.154;2023-06-04T07:26:21;150730.31;;;36.66;20.88
14689;BME280;7432;48.728;9.154;2023-06-04T07:28:50;150819.03;;;37.02;21.04
14689;BME280;7432;48.728;9.154;2023-06-04T07:31:16;150743.84;;;36.71;21.57
14689;BME280;7432;48.728;9.154;2023-06-04T07:33:43;150884.31;;;37.29;20.54
14689;BME280;7432;48.728;9.154;2023-06-04T07:36:11;150950.91;;;37.56;21.00
14689;BME280;7432;48.728;9.154;2023-06-04T07:38:40;151007.56;;;37.79;20.65
14689;BME280;7432;48.728;9.154;2023-06-04T07:41:06;150902.78;;;37.36;21.01
14689;BME280;7432;48.728;9.154;2023-06-04T07:43:33;151176.50;;;38.48;20.91
14689;BME280;7432;48.728;9.154;2023-06-04T07:46:00;151234.44;;;38.72;19.23
14689;BME280;7432;48.728;9.154;2023-06-04T07:48:27;151196.22;;;38.57;19.82
14689;BME280;7432;48.728;9.154;2023-06-04T07:50:56;151032.28;;;37.89;20.07
14689;BME280;7432;48.728;9.154;2023-06-04T07:53:22;151100.03;;;38.17;20.12
14689;BME280;7432;48.728;9.154;2023-06-04T07:55:50;150586.16;;;36.07;21.39
14689;BME280;7432;48.728;9.154;2023-06-04T07:58:16;150731.53;;;36.66;21.27
14689;BME280;7432;48.728;9.154;2023-06-04T08:00:43;150630.50;;;36.25;21.50
14689;BME280;7432;48.728;9.154;2023-06-04T08:03:09;150851.06;;;37.15;21.12
14689;BME280;7432;48.728;9.154;2023-06-04T08:05:36;151069.22;;;38.05;20.35
14689;BME280;7432;48.728;9.154;2023-06-04T08:08:03;151072.94;;;38.06;20.10
14689;BME280;7432;48.728;9.154;2023-06-04T08:10:30;151352.94;;;39.21;20.47
14689;BME280;7432;48.728;9.154;2023-06-04T08:12:57;151550.31;;;40.01;18.71
14689;BME280;7432;48.728;9.154;2023-06-04T08:15:24;151127.13;;;38.28;20.44
14689;BME280;7432;48.728;9.154;2023-06-04T08:17:50;150660.03;;;36.37;21.16
14689;BME280;7432;48.728;9.154;2023-06-04T08:20:16;150581.25;;;36.05;22.10
14689;BME280;7432;48.728;9.154;2023-06-04T08:22:43;150880.59;;;37.27;20.63
14689;BME280;7432;48.728;9.154;2023-06-04T08:25:09;150791.91;;;36.91;21.53
14689;BME280;7432;48.728;9.154;2023-06-04T08:27:36;150541.81;;;35.89;21.06
14689;BME280;7432;48.728;9.154;2023-06-04T08:30:05;150605.91;;;36.15;21.72
14689;BME280;7432;48.728;9.154;2023-06-04T08:32:32;150544.28;;;35.90;21.94
14689;BME280;7432;48.728;9.154;2023-06-04T08:34:58;150819.03;;;37.02;21.33
14689;BME280;7432;48.728;9.154;2023-06-04T08:37:25;150996.47;;;37.75;20.34
14689;BME280;7432;48.728;9.154;2023-06-04T08:39:51;151151.88;;;38.38;20.24
14689;BME280;7432;48.728;9.154;2023-06-04T08:42:22;151170.34;;;38.46;19.87
14689;BME280;7432;48.728;9.154;2023-06-04T08:44:50;151040.88;;;37.93;20.51
14689;BME280;7432;48.728;9.154;2023-06-04T08:47:19;150995.22;;;37.74;20.93
14689;BME280;7432;48.728;9.154;2023-06-04T08:49:50;150884.31;;;37.29;20.86
14689;BME280;7432;48.728;9.154;2023-06-04T08:52:16;151103.75;;;38.19;20.15
14689;BME280;7432;48.728;9.154;2023-06-04T08:54:48;151035.94;;;37.91;19.89
14689;BME280;7432;48.728;9.154;2023-06-04T08:57:15;151254.22;;;38.80;20.66
14689;BME280;7432;48.728;9.154;2023-06-04T08:59:42;151391.16;;;39.36;19.83
14689;BME280;7432;48.728;9.154;2023-06-04T09:02:09;151421.97;;;39.49;20.42
14689;BME280;7432;48.728;9.154;2023-06-04T09:04:39;151223.34;;;38.68;19.94
14689;BME280;7432;48.728;9.154;2023-06-04T09:07:06;151356.63;;;39.22;19.40
14689;BME280;7432;48.728;9.154;2023-06-04T09:09:38;151561.44;;;40.06;19.13
14689;BME280;7432;48.728;9.154;2023-06-04T09:12:09;151634.28;;;40.36;19.39
14689;BME280;7432;48.728;9.154;2023-06-04T09:14:36;151440.50;;;39.56;19.01
14689;BME280;7432;48.728;9.154;2023-06-04T09:17:03;150764.78;;;36.80;20.57
14689;BME280;7432;48.728;9.154;2023-06-04T09:19:29;150884.31;;;37.29;20.53
14689;BME280;7432;48.728;9.154;2023-06-04T09:21:57;150519.63;;;35.80;21.20
14689;BME280;7432;48.728;9.154;2023-06-04T09:24:25;150844.91;;;37.13;20.59
14689;BME280;7432;48.728;9.154;2023-06-04T09:26:51;150913.88;;;37.41;20.66
14689;BME280;7432;48.728;9.154;2023-06-04T09:29:18;150888.00;;;37.30;20.71
14689;BME280;7432;48.728;9.154;2023-06-04T09:31:45;150737.69;;;36.69;20.24
14689;BME280;7432;48.728;9.154;2023-06-04T09:34:12;150665.00;;;36.39;20.68
14689;BME280;7432;48.728;9.154;2023-06-04T09:36:39;150763.56;;;36.79;21.88
14689;BME280;7432;48.728;9.154;2023-06-04T09:39:16;151118.53;;;38.25;19.98
14689;BME280;7432;48.728;9.154;2023-06-04T09:41:42;151493.59;;;39.78;18.20
14689;BME280;7432;48.728;9.154;2023-06-04T09:44:09;151729.31;;;40.74;18.82
14689;BME280;7432;48.728;9.154;2023-06-04T09:46:37;151623.13;;;40.31;19.02
14689;BME280;7432;48.728;9.154;2023-06-04T09:49:04;150844.91;;;37.13;20.20
14689;BME280;7432;48.728;9.154;2023-06-04T09:51:31;150995.22;;;37.74;20.17
14689;BME280;7432;48.728;9.154;2023-06-04T09:54:00;150747.53;;;36.73;21.35
14689;BME280;7432;48.728;9.154;2023-06-04T09:56:28;150970.59;;;37.64;20.61
14689;BME280;7432;48.728;9.154;2023-06-04T09:58:58;151095.09;;;38.15;20.05
14689;BME280;7432;48.728;9.154;2023-06-04T10:01:27;150848.56;;;37.14;20.97
14689;BME280;7432;48.728;9.154;2023-06-04T10:03:57;150769.72;;;36.82;20.88
14689;BME280;7432;48.728;9.154;2023-06-04T10:06:25;151113.56;;;38.23;19.15
14689;BME280;7432;48.728;9.154;2023-06-04T10:08:52;151488.63;;;39.76;19.44
14689;BME280;7432;48.728;9.154;2023-06-04T10:11:26;151541.66;;;39.98;19.32
14689;BME280;7432;48.728;9.154;2023-06-04T10:14:02;151450.34;;;39.60;18.86
14689;BME280;7432;48.728;9.154;2023-06-04T10:16:30;151024.84;;;37.86;20.28
14689;BME280;7432;48.728;9.154;2023-06-04T10:18:58;150931.19;;;37.48;19.89
14689;BME280;7432;48.728;9.154;2023-06-04T10:21:26;150932.44;;;37.49;20.10
14689;BME280;7432;48.728;9.154;2023-06-04T10:23:52;151249.28;;;38.78;19.84
14689;BME280;7432;48.728;9.154;2023-06-04T10:26:19;151124.72;;;38.27;19.81
14689;BME280;7432;48.728;9.154;2023-06-04T10:28:46;150978.00;;;37.67;19.52
14689;BME280;7432;48.728;9.154;2023-06-04T10:31:15;150844.91;;;37.13;20.63
14689;BME280;7432;48.728;9.154;2023-06-04T10:33:42;151196.22;;;38.57;19.11
14689;BME280;7432;48.728;9.154;2023-06-04T10:36:18;150949.66;;;37.56;19.40
14689;BME280;7432;48.728;9.154;2023-06-04T10:38:46;151292.47;;;38.96;19.24
14689;BME280;7432;48.728;9.154;2023-06-04T10:41:16;151149.38;;;38.37;19.10
14689;BME280;7432;48.728;9.154;2023-06-04T10:43:43;150873.19;;;37.24;20.48
14689;BME280;7432;48.728;9.154;2023-06-04T10:46:11;150634.19;;;36.26;21.36
14689;BME280;7432;48.728;9.154;2023-06-04T10:48:49;150943.50;;;37.53;20.01
14689;BME280;7432;48.728;9.154;2023-06-04T10:51:16;150815.31;;;37.01;20.80
14689;BME280;7432;48.728;9.154;2023-06-04T10:53:43;150444.53;;;35.49;21.73
14689;BME280;7432;48.728;9.154;2023-06-04T10:56:09;150429.75;;;35.43;21.24
14689;BME280;7432;48.728;9.154;2023-06-04T10:58:36;150401.44;;;35.31;20.87
14689;BME280;7432;48.728;9.154;2023-06-04T11:01:02;150532.00;;;35.85;21.06
14689;BME280;7432;48.728;9.154;2023-06-04T11:03:34;150200.81;;;34.49;23.15
14689;BME280;7432;48.728;9.154;2023-06-04T11:06:14;150396.53;;;35.29;21.35
14689;BME280;7432;48.728;9.154;2023-06-04T11:08:42;150152.81;;;34.29;22.91
14689;BME280;7432;48.728;9.154;2023-06-04T11:11:11;150517.19;;;35.79;20.95
14689;BME280;7432;48.728;9.154;2023-06-04T11:13:37;150560.25;;;35.96;21.26
14689;BME280;7432;48.728;9.154;2023-06-04T11:16:14;150646.50;;;36.32;20.45
14689;BME280;7432;48.728;9.154;2023-06-04T11:18:40;150559.06;;;35.96;20.76
14689;BME280;7432;48.728;9.154;2023-06-04T11:21:08;150449.44;;;35.51;21.17
14689;BME280;7432;48.728;9.154;2023-06-04T11:23:36;150390.38;;;35.27;21.61
14689;BME280;7432;48.728;9.154;2023-06-04T11:26:03;150245.16;;;34.67;23.00
14689;BME280;7432;48.728;9.154;2023-06-04T11:28:29;150498.75;;;35.71;21.41
14689;BME280;7432;48.728;9.154;2023-06-04T11:30:56;150455.59;;;35.53;21.47
14689;BME280;7432;48.728;9.154;2023-06-04T11:33:23;150631.75;;;36.25;21.06
14689;BME280;7432;48.728;9.154;2023-06-04T11:35:50;150814.09;;;37.00;20.55
14689;BME280;7432;48.728;9.154;2023-06-04T11:38:17;150439.59;;;35.47;22.06
14689;BME280;7432;48.728;9.154;2023-06-04T11:40:44;149849.00;;;33.05;23.36
14689;BME280;7432;48.728;9.154;2023-06-04T11:43:11;149928.94;;;33.37;23.23
14689;BME280;7432;48.728;9.154;2023-06-04T11:45:37;150203.28;;;34.50;22.11
14689;BME280;7432;48.728;9.154;2023-06-04T11:48:05;150343.63;;;35.07;22.05
14689;BME280;7432;48.728;9.154;2023-06-04T11:50:31;150351.00;;;35.10;22.21
14689;BME280;7432;48.728;9.154;2023-06-04T11:52:58;150304.22;;;34.91;21.86
14689;BME280;7432;48.728;9.154;2023-06-04T11:55:27;150288.19;;;34.85;22.16
14689;BME280;7432;48.728;9.154;2023-06-04T11:57:53;149703.97;;;32.45;23.88
14689;BME280;7432;48.728;9.154;2023-06-04T12:00:20;149094.78;;;29.95;26.03
14689;BME280;7432;48.728;9.154;2023-06-04T12:02:51;148884.97;;;29.09;27.16
14689;BME280;7432;48.728;9.154;2023-06-04T12:05:19;148602.94;;;27.93;28.04
14689;BME280;7432;48.728;9.154;2023-06-04T12:07:48;148535.59;;;27.65;29.64
14689;BME280;7432;48.728;9.154;2023-06-04T12:10:16;148421.63;;;27.18;29.88
14689;BME280;7432;48.728;9.154;2023-06-04T12:12:43;148524.53;;;27.60;29.34
14689;BME280;7432;48.728;9.154;2023-06-04T12:15:10;148829.78;;;28.86;27.78
14689;BME280;7432;48.728;9.154;2023-06-04T12:17:37;149022.38;;;29.65;26.45
14689;BME280;7432;48.728;9.154;2023-06-04T12:20:04;148977.00;;;29.47;26.86
14689;BME280;7432;48.728;9.154;2023-06-04T12:22:31;148851.88;;;28.95;27.23
14689;BME280;7432;48.728;9.154;2023-06-04T12:24:58;148886.22;;;29.09;27.71
14689;BME280;7432;48.728;9.154;2023-06-04T12:27:28;148718.19;;;28.40;28.01
14689;BME280;7432;48.728;9.154;2023-06-04T12:29:56;148710.84;;;28.37;27.97
14689;BME280;7432;48.728;9.154;2023-06-04T12:32:23;148621.34;;;28.00;28.62
14689;BME280;7432;48.728;9.154;2023-06-04T12:34:50;148644.66;;;28.10;28.12
14689;BME280;7432;48.728;9.154;2023-06-04T12:37:17;148605.41;;;27.94;29.59
14689;BME280;7432;48.728;9.154;2023-06-04T12:39:43;148522.13;;;27.59;28.75
14689;BME280;7432;48.728;9.154;2023-06-04T12:42:10;148406.91;;;27.12;29.13
14689;BME280;7432;48.728;9.154;2023-06-04T12:44:37;148383.63;;;27.02;29.34
14689;BME280;7432;48.728;9.154;2023-06-04T12:47:05;148335.91;;;26.83;29.12
14689;BME280;7432;48.728;9.154;2023-06-04T12:49:32;148354.25;;;26.90;29.30
14689;BME280;7432;48.728;9.154;2023-06-04T12:51:58;148339.56;;;26.84;29.34
14689;BME280;7432;48.728;9.154;2023-06-04T12:54:25;148267.28;;;26.55;30.56
14689;BME280;7432;48.728;9.154;2023-06-04T12:56:52;148288.09;;;26.63;29.75
14689;BME280;7432;48.728;9.154;2023-06-04T12:59:19;148186.47;;;26.21;30.68
14689;BME280;7432;48.728;9.154;2023-06-04T13:01:45;148236.69;;;26.42;30.33